createdAt,value
2016-04-07T00:00:15.323Z,0
2016-04-07T00:01:15.308Z,0
2016-04-07T00:02:15.311Z,0
2016-04-07T00:03:15.330Z,0
2016-04-07T00:04:15.348Z,0
2016-04-07T00:05:15.335Z,0
2016-04-07T00:06:15.353Z,0
2016-04-07T00:07:15.356Z,0
2016-04-07T00:08:15.453Z,0
2016-04-07T00:09:15.361Z,0
2016-04-07T00:10:15.364Z,0
2016-04-07T00:11:15.399Z,0
2016-04-07T00:12:15.370Z,0
2016-04-07T00:13:15.388Z,0
2016-04-07T00:14:15.391Z,0
2016-04-07T00:15:15.409Z,0
2016-04-07T00:16:15.420Z,0
2016-04-07T00:17:15.483Z,0
2016-04-07T00:18:15.530Z,0
2016-04-07T00:19:15.577Z,0
2016-04-07T00:20:15.624Z,0
2016-04-07T00:21:15.670Z,0
2016-04-07T00:22:15.736Z,0
2016-04-07T00:23:15.785Z,0
2016-04-07T00:24:15.741Z,0
2016-04-07T00:25:15.760Z,0
2016-04-07T00:26:15.757Z,0
2016-04-07T00:27:15.765Z,0
2016-04-07T00:28:15.773Z,0
2016-04-07T00:29:15.783Z,0
2016-04-07T00:30:15.806Z,0
2016-04-07T00:31:15.688Z,0
2016-04-07T00:32:15.849Z,0
2016-04-07T00:33:15.837Z,0
2016-04-07T00:34:15.857Z,0
2016-04-07T00:35:15.862Z,0
2016-04-07T00:36:15.850Z,0
2016-04-07T00:37:15.870Z,0
2016-04-07T00:38:15.889Z,0
2016-04-07T00:39:15.877Z,0
2016-04-07T00:40:15.896Z,0
2016-04-07T00:41:15.915Z,0
2016-04-07T00:42:15.902Z,0
2016-04-07T00:43:15.890Z,0
2016-04-07T00:44:15.909Z,0
2016-04-07T00:45:15.926Z,0
2016-04-07T00:46:16.087Z,0
2016-04-07T00:47:15.932Z,0
2016-04-07T00:48:15.919Z,0
2016-04-07T00:49:15.937Z,0
2016-04-07T00:50:15.940Z,0
2016-04-07T00:51:15.943Z,0
2016-04-07T00:52:15.945Z,0
2016-04-07T00:53:15.964Z,0
2016-04-07T00:54:15.967Z,0
2016-04-07T00:55:15.970Z,0
2016-04-07T00:56:16.003Z,0
2016-04-07T00:57:15.991Z,0
2016-04-07T00:58:15.994Z,0
2016-04-07T00:59:16.011Z,0
2016-04-07T01:00:15.999Z,0
2016-04-07T01:01:16.017Z,0
2016-04-07T01:02:16.005Z,0
2016-04-07T01:03:16.022Z,0
2016-04-07T01:04:16.025Z,0
2016-04-07T01:05:16.044Z,0
2016-04-07T01:06:16.062Z,0
2016-04-07T01:07:16.049Z,0
2016-04-07T01:08:16.067Z,0
2016-04-07T01:09:16.055Z,0
2016-04-07T01:10:16.057Z,0
2016-04-07T01:11:16.060Z,0
2016-04-07T01:12:16.063Z,0
2016-04-07T01:13:16.080Z,0
2016-04-07T01:14:16.068Z,0
2016-04-07T01:15:16.071Z,0
2016-04-07T01:16:16.088Z,0
2016-04-07T01:17:16.090Z,0
2016-04-07T01:18:16.109Z,0
2016-04-07T01:19:16.112Z,0
2016-04-07T01:20:16.115Z,0
2016-04-07T01:21:16.118Z,0
2016-04-07T01:22:16.136Z,0
2016-04-07T01:23:16.123Z,0
2016-04-07T01:24:16.156Z,0
2016-04-07T01:25:16.159Z,0
2016-04-07T01:26:16.162Z,0
2016-04-07T01:27:16.150Z,0
2016-04-07T01:28:16.167Z,0
2016-04-07T01:29:16.155Z,0
2016-04-07T01:30:16.158Z,0
2016-04-07T01:31:16.175Z,0
2016-04-07T01:32:16.178Z,0
2016-04-07T01:33:16.197Z,0
2016-04-07T01:34:16.199Z,0
2016-04-07T01:35:16.202Z,0
2016-04-07T01:36:16.205Z,0
2016-04-07T01:37:16.224Z,0
2016-04-07T01:38:16.227Z,0
2016-04-07T01:39:16.244Z,0
2016-04-07T01:40:16.216Z,0
2016-04-07T01:41:16.234Z,0
2016-04-07T01:42:16.252Z,0
2016-04-07T01:43:16.255Z,0
2016-04-07T01:44:16.274Z,0
2016-04-07T01:45:16.245Z,0
2016-04-07T01:46:16.263Z,0
2016-04-07T01:47:16.265Z,0
2016-04-07T01:48:16.268Z,0
2016-04-07T01:49:16.271Z,0
2016-04-07T01:50:16.274Z,0
2016-04-07T01:51:16.292Z,0
2016-04-07T01:52:15.982Z,0
2016-04-07T01:53:16.313Z,0
2016-04-07T01:54:16.315Z,0
2016-04-07T01:55:16.318Z,0
2016-04-07T01:56:16.321Z,0
2016-04-07T01:57:16.308Z,0
2016-04-07T01:58:16.342Z,0
2016-04-07T01:59:16.344Z,0
2016-04-07T02:00:16.347Z,0
2016-04-07T02:01:16.334Z,0
2016-04-07T02:02:16.337Z,0
2016-04-07T02:03:16.355Z,0
2016-04-07T02:04:16.358Z,0
2016-04-07T02:05:16.361Z,0
2016-04-07T02:06:16.379Z,0
2016-04-07T02:07:16.382Z,0
2016-04-07T02:08:16.400Z,0
2016-04-07T02:09:16.388Z,0
2016-04-07T02:10:16.406Z,0
2016-04-07T02:11:16.408Z,0
2016-04-07T02:12:16.410Z,0
2016-04-07T02:13:16.414Z,0
2016-04-07T02:14:16.416Z,0
2016-04-07T02:15:16.435Z,0
2016-04-07T02:16:16.438Z,0
2016-04-07T02:17:16.440Z,0
2016-04-07T02:18:16.459Z,0
2016-04-07T02:19:16.462Z,0
2016-04-07T02:20:16.448Z,0
2016-04-07T02:21:16.467Z,0
2016-04-07T02:22:16.470Z,0
2016-04-07T02:23:16.472Z,0
2016-04-07T02:24:16.475Z,0
2016-04-07T02:25:16.493Z,0
2016-04-07T02:26:16.481Z,0
2016-04-07T02:27:16.498Z,0
2016-04-07T02:28:16.501Z,0
2016-04-07T02:29:16.504Z,0
2016-04-07T02:30:16.538Z,0
2016-04-07T02:31:16.509Z,0
2016-04-07T02:32:16.527Z,0
2016-04-07T02:33:16.514Z,0
2016-04-07T02:34:16.517Z,0
2016-04-07T02:35:16.536Z,0
2016-04-07T02:36:16.554Z,0
2016-04-07T02:37:16.556Z,0
2016-04-07T02:38:16.543Z,0
2016-04-07T02:39:16.561Z,0
2016-04-07T02:40:16.564Z,0
2016-04-07T02:41:16.582Z,0
2016-04-07T02:42:16.601Z,0
2016-04-07T02:43:16.588Z,0
2016-04-07T02:44:16.591Z,0
2016-04-07T02:45:16.593Z,0
2016-04-07T02:46:16.612Z,0
2016-04-07T02:47:16.615Z,0
2016-04-07T02:48:16.602Z,0
2016-04-07T02:49:16.620Z,0
2016-04-07T02:50:16.623Z,0
2016-04-07T02:51:16.641Z,0
2016-04-07T02:52:16.643Z,0
2016-04-07T02:53:16.646Z,0
2016-04-07T02:54:16.649Z,0
2016-04-07T02:55:16.652Z,0
2016-04-07T02:56:16.654Z,0
2016-04-07T02:57:16.657Z,0
2016-04-07T02:58:16.659Z,0
2016-04-07T02:59:16.678Z,0
2016-04-07T03:00:16.697Z,0
2016-04-07T03:01:16.700Z,0
2016-04-07T03:02:16.686Z,0
2016-04-07T03:03:16.705Z,0
2016-04-07T03:04:16.692Z,0
2016-04-07T03:05:16.726Z,0
2016-04-07T03:06:16.728Z,0
2016-04-07T03:07:16.716Z,0
2016-04-07T03:08:16.719Z,0
2016-04-07T03:09:16.721Z,0
2016-04-07T03:10:16.739Z,0
2016-04-07T03:11:16.758Z,0
2016-04-07T03:12:16.745Z,0
2016-04-07T03:13:16.762Z,0
2016-04-07T03:14:16.749Z,0
2016-04-07T03:15:16.768Z,0
2016-04-07T03:16:16.771Z,0
2016-04-07T03:17:16.773Z,0
2016-04-07T03:18:16.791Z,0
2016-04-07T03:19:16.793Z,0
2016-04-07T03:20:16.797Z,0
2016-04-07T03:21:16.799Z,0
2016-04-07T03:22:16.802Z,0
2016-04-07T03:23:16.804Z,0
2016-04-07T03:24:16.823Z,0
2016-04-07T03:25:16.826Z,0
2016-04-07T03:26:16.829Z,0
2016-04-07T03:27:16.862Z,0
2016-04-07T03:28:16.865Z,0
2016-04-07T03:29:16.696Z,0
2016-04-07T03:30:16.855Z,0
2016-04-07T03:31:16.842Z,0
2016-04-07T03:32:16.861Z,0
2016-04-07T03:33:16.895Z,0
2016-04-07T03:34:16.913Z,0
2016-04-07T03:35:16.916Z,0
2016-04-07T03:36:16.903Z,0
2016-04-07T03:37:16.890Z,0
2016-04-07T03:38:16.877Z,0
2016-04-07T03:39:16.895Z,0
2016-04-07T03:40:16.961Z,0
2016-04-07T03:41:16.916Z,0
2016-04-07T03:42:16.919Z,0
2016-04-07T03:43:16.937Z,0
2016-04-07T03:44:16.925Z,0
2016-04-07T03:45:16.927Z,0
2016-04-07T03:46:16.946Z,0
2016-04-07T03:47:17.011Z,0
2016-04-07T03:48:16.950Z,0
2016-04-07T03:49:16.968Z,0
2016-04-07T03:50:16.956Z,0
2016-04-07T03:51:16.974Z,0
2016-04-07T03:52:16.976Z,0
2016-04-07T03:53:16.980Z,0
2016-04-07T03:54:16.999Z,0
2016-04-07T03:55:17.032Z,0
2016-04-07T03:56:16.987Z,0
2016-04-07T03:57:17.006Z,0
2016-04-07T03:58:17.024Z,0
2016-04-07T03:59:17.026Z,0
2016-04-07T04:00:17.029Z,0
2016-04-07T04:01:17.017Z,0
2016-04-07T04:02:17.034Z,0
2016-04-07T04:03:17.037Z,0
2016-04-07T04:04:17.040Z,0
2016-04-07T04:05:17.043Z,0
2016-04-07T04:06:17.061Z,0
2016-04-07T04:07:16.892Z,0
2016-04-07T04:08:17.051Z,0
2016-04-07T04:09:17.133Z,0
2016-04-07T04:10:17.072Z,0
2016-04-07T04:11:17.091Z,0
2016-04-07T04:12:17.109Z,0
2016-04-07T04:13:17.080Z,0
2016-04-07T04:14:17.099Z,0
2016-04-07T04:15:17.102Z,0
2016-04-07T04:16:17.166Z,0
2016-04-07T04:17:17.122Z,0
2016-04-07T04:18:17.125Z,0
2016-04-07T04:19:17.113Z,0
2016-04-07T04:20:17.130Z,0
2016-04-07T04:21:17.133Z,0
2016-04-07T04:22:17.136Z,0
2016-04-07T04:23:17.154Z,0
2016-04-07T04:24:17.188Z,0
2016-04-07T04:25:17.160Z,0
2016-04-07T04:26:17.162Z,0
2016-04-07T04:27:16.415Z,0
2016-04-07T04:28:17.184Z,0
2016-04-07T04:29:17.187Z,0
2016-04-07T04:30:17.172Z,0
2016-04-07T04:31:17.191Z,0
2016-04-07T04:32:17.194Z,0
2016-04-07T04:33:17.212Z,0
2016-04-07T04:34:17.215Z,0
2016-04-07T04:35:17.202Z,0
2016-04-07T04:36:17.267Z,0
2016-04-07T04:37:17.207Z,0
2016-04-07T04:38:17.225Z,0
2016-04-07T04:39:17.244Z,0
2016-04-07T04:40:17.247Z,0
2016-04-07T04:41:17.250Z,0
2016-04-07T04:42:17.267Z,0
2016-04-07T04:43:17.301Z,0
2016-04-07T04:44:17.272Z,0
2016-04-07T04:45:17.291Z,0
2016-04-07T04:46:17.278Z,0
2016-04-07T04:47:17.296Z,0
2016-04-07T04:48:17.315Z,0
2016-04-07T04:49:17.286Z,0
2016-04-07T04:50:17.289Z,0
2016-04-07T04:51:17.307Z,0
2016-04-07T04:52:17.294Z,0
2016-04-07T04:53:17.329Z,0
2016-04-07T04:54:17.441Z,0
2016-04-07T04:55:17.318Z,0
2016-04-07T04:56:17.337Z,0
2016-04-07T04:57:17.340Z,5
2016-04-07T04:58:17.357Z,5
2016-04-07T04:59:17.360Z,5
2016-04-07T05:00:17.362Z,5
2016-04-07T05:01:17.381Z,5
2016-04-07T05:02:17.384Z,5
2016-04-07T05:03:17.387Z,5
2016-04-07T05:04:17.389Z,5
2016-04-07T05:05:17.392Z,5
2016-04-07T05:06:17.395Z,10
2016-04-07T05:07:17.398Z,10
2016-04-07T05:08:17.384Z,10
2016-04-07T05:09:17.590Z,10
2016-04-07T05:10:17.421Z,10
2016-04-07T05:11:17.424Z,10
2016-04-07T05:12:17.427Z,15
2016-04-07T05:13:17.444Z,15
2016-04-07T05:14:17.448Z,15
2016-04-07T05:15:17.450Z,15
2016-04-07T05:16:17.453Z,15
2016-04-07T05:17:17.455Z,15
2016-04-07T05:18:17.458Z,20
2016-04-07T05:19:17.305Z,20
2016-04-07T05:20:17.479Z,20
2016-04-07T05:21:17.482Z,20
2016-04-07T05:22:17.485Z,20
2016-04-07T05:23:17.471Z,25
2016-04-07T05:24:17.568Z,25
2016-04-07T05:25:17.507Z,25
2016-04-07T05:26:17.526Z,30
2016-04-07T05:27:17.513Z,30
2016-04-07T05:28:17.532Z,30
2016-04-07T05:29:17.582Z,30
2016-04-07T05:30:17.537Z,30
2016-04-07T05:31:17.556Z,35
2016-04-07T05:32:17.542Z,40
2016-04-07T05:33:17.561Z,40
2016-04-07T05:34:17.548Z,35
2016-04-07T05:35:17.567Z,40
2016-04-07T05:36:17.569Z,35
2016-04-07T05:37:17.556Z,40
2016-04-07T05:38:17.575Z,40
2016-04-07T05:39:17.687Z,40
2016-04-07T05:40:17.595Z,45
2016-04-07T05:41:17.598Z,55
2016-04-07T05:42:17.600Z,45
2016-04-07T05:43:17.603Z,45
2016-04-07T05:44:17.622Z,50
2016-04-07T05:45:17.625Z,55
2016-04-07T05:46:17.643Z,80
2016-04-07T05:47:17.646Z,85
2016-04-07T05:48:17.649Z,75
2016-04-07T05:49:17.636Z,85
2016-04-07T05:50:17.638Z,105
2016-04-07T05:51:17.657Z,105
2016-04-07T05:52:17.660Z,125
2016-04-07T05:53:17.662Z,125
2016-04-07T05:54:17.774Z,95
2016-04-07T05:55:17.683Z,125
2016-04-07T05:56:17.686Z,145
2016-04-07T05:57:17.688Z,105
2016-04-07T05:58:17.706Z,110
2016-04-07T05:59:17.693Z,150
2016-04-07T06:00:17.727Z,150
2016-04-07T06:01:17.729Z,145
2016-04-07T06:02:17.732Z,155
2016-04-07T06:03:17.735Z,175
2016-04-07T06:04:17.738Z,165
2016-04-07T06:05:17.740Z,130
2016-04-07T06:06:17.743Z,85
2016-04-07T06:07:17.761Z,60
2016-04-07T06:08:17.753Z,115
2016-04-07T06:09:18.006Z,145
2016-04-07T06:10:17.791Z,145
2016-04-07T06:11:17.778Z,170
2016-04-07T06:12:17.796Z,155
2016-04-07T06:13:17.799Z,145
2016-04-07T06:14:17.802Z,165
2016-04-07T06:15:17.804Z,190
2016-04-07T06:16:17.838Z,115
2016-04-07T06:17:17.825Z,100
2016-04-07T06:18:17.827Z,75
2016-04-07T06:19:17.846Z,85
2016-04-07T06:20:17.833Z,200
2016-04-07T06:21:17.852Z,260
2016-04-07T06:22:17.869Z,320
2016-04-07T06:23:17.857Z,315
2016-04-07T06:24:17.953Z,205
2016-04-07T06:25:17.862Z,315
2016-04-07T06:26:17.879Z,220
2016-04-07T06:27:17.914Z,225
2016-04-07T06:28:17.901Z,305
2016-04-07T06:29:17.904Z,80
2016-04-07T06:30:17.922Z,325
2016-04-07T06:31:17.925Z,320
2016-04-07T06:32:17.928Z,205
2016-04-07T06:33:17.945Z,380
2016-04-07T06:34:17.933Z,420
2016-04-07T06:35:17.951Z,430
2016-04-07T06:36:17.954Z,440
2016-04-07T06:37:17.972Z,360
2016-04-07T06:38:17.975Z,435
2016-04-07T06:39:17.836Z,435
2016-04-07T06:40:17.965Z,120
2016-04-07T06:41:17.999Z,490
2016-04-07T06:42:18.002Z,520
2016-04-07T06:43:18.036Z,180
2016-04-07T06:44:18.023Z,115
2016-04-07T06:45:18.025Z,115
2016-04-07T06:46:18.043Z,455
2016-04-07T06:47:18.061Z,460
2016-04-07T06:48:18.064Z,550
2016-04-07T06:49:18.067Z,100
2016-04-07T06:50:18.070Z,140
2016-04-07T06:51:18.072Z,590
2016-04-07T06:52:18.091Z,125
2016-04-07T06:53:18.296Z,125
2016-04-07T06:54:17.877Z,420
2016-04-07T06:55:18.114Z,120
2016-04-07T06:56:18.117Z,105
2016-04-07T06:57:18.120Z,115
2016-04-07T06:58:18.138Z,100
2016-04-07T06:59:18.157Z,105
2016-04-07T07:00:18.143Z,120
2016-04-07T07:01:18.162Z,125
2016-04-07T07:02:18.164Z,125
2016-04-07T07:03:18.167Z,125
2016-04-07T07:04:18.170Z,120
2016-04-07T07:05:18.204Z,110
2016-04-07T07:06:18.207Z,120
2016-04-07T07:07:18.225Z,120
2016-04-07T07:08:18.228Z,90
2016-04-07T07:09:18.278Z,125
2016-04-07T07:10:18.202Z,105
2016-04-07T07:11:18.236Z,65
2016-04-07T07:12:18.238Z,70
2016-04-07T07:13:18.256Z,65
2016-04-07T07:14:18.259Z,70
2016-04-07T07:15:18.262Z,65
2016-04-07T07:16:18.265Z,85
2016-04-07T07:17:18.439Z,60
2016-04-07T07:18:18.286Z,50
2016-04-07T07:19:18.288Z,35
2016-04-07T07:20:18.354Z,30
2016-04-07T07:21:18.294Z,25
2016-04-07T07:22:18.312Z,30
2016-04-07T07:23:18.330Z,40
2016-04-07T07:24:18.410Z,70
2016-04-07T07:25:18.335Z,85
2016-04-07T07:26:18.338Z,80
2016-04-07T07:27:18.341Z,75
2016-04-07T07:28:18.360Z,75
2016-04-07T07:29:18.362Z,70
2016-04-07T07:30:18.490Z,95
2016-04-07T07:31:18.398Z,115
2016-04-07T07:32:18.215Z,110
2016-04-07T07:33:18.394Z,85
2016-04-07T07:34:18.928Z,80
2016-04-07T07:35:18.384Z,100
2016-04-07T07:36:18.449Z,90
2016-04-07T07:37:18.405Z,85
2016-04-07T07:38:18.424Z,95
2016-04-07T07:39:18.415Z,95
2016-04-07T07:40:18.418Z,100
2016-04-07T07:41:18.420Z,85
2016-04-07T07:42:18.439Z,70
2016-04-07T07:43:18.286Z,80
2016-04-07T07:44:18.506Z,95
2016-04-07T07:45:18.463Z,110
2016-04-07T07:46:18.528Z,100
2016-04-07T07:47:18.469Z,120
2016-04-07T07:48:18.534Z,80
2016-04-07T07:49:19.052Z,80
2016-04-07T07:50:18.508Z,80
2016-04-07T07:51:18.510Z,75
2016-04-07T07:52:18.513Z,75
2016-04-07T07:53:18.515Z,75
2016-04-07T07:54:18.549Z,90
2016-04-07T07:55:18.521Z,100
2016-04-07T07:56:18.523Z,90
2016-04-07T07:57:18.557Z,100
2016-04-07T07:58:18.623Z,90
2016-04-07T07:59:18.563Z,75
2016-04-07T08:00:18.879Z,75
2016-04-07T08:01:18.568Z,95
2016-04-07T08:02:18.571Z,100
2016-04-07T08:03:18.574Z,100
2016-04-07T08:04:18.435Z,85
2016-04-07T08:05:18.595Z,90
2016-04-07T08:06:18.034Z,105
2016-04-07T08:07:18.459Z,105
2016-04-07T08:08:18.603Z,105
2016-04-07T08:09:18.621Z,95
2016-04-07T08:10:18.640Z,75
2016-04-07T08:11:18.642Z,80
2016-04-07T08:12:18.629Z,75
2016-04-07T08:13:18.663Z,75
2016-04-07T08:14:18.650Z,70
2016-04-07T08:15:18.684Z,90
2016-04-07T08:16:18.672Z,70
2016-04-07T08:17:18.675Z,65
2016-04-07T08:18:18.692Z,65
2016-04-07T08:19:18.680Z,80
2016-04-07T08:20:18.697Z,75
2016-04-07T08:21:18.731Z,80
2016-04-07T08:22:18.719Z,85
2016-04-07T08:23:18.736Z,105
2016-04-07T08:24:18.755Z,75
2016-04-07T08:25:18.726Z,70
2016-04-07T08:26:18.729Z,55
2016-04-07T08:27:18.747Z,50
2016-04-07T08:28:18.750Z,55
2016-04-07T08:29:18.753Z,65
2016-04-07T08:30:18.788Z,65
2016-04-07T08:31:18.805Z,90
2016-04-07T08:32:18.793Z,125
2016-04-07T08:33:18.795Z,290
2016-04-07T08:34:18.813Z,225
2016-04-07T08:35:18.815Z,320
2016-04-07T08:36:18.819Z,1020
2016-04-07T08:37:18.823Z,125
2016-04-07T08:38:18.825Z,90
2016-04-07T08:39:18.844Z,140
2016-04-07T08:40:18.924Z,90
2016-04-07T08:41:18.880Z,65
2016-04-07T08:42:18.882Z,55
2016-04-07T08:43:18.885Z,50
2016-04-07T08:44:18.904Z,40
2016-04-07T08:45:18.891Z,40
2016-04-07T08:46:18.878Z,40
2016-04-07T08:47:18.896Z,35
2016-04-07T08:48:18.899Z,30
2016-04-07T08:49:18.901Z,30
2016-04-07T08:50:18.920Z,30
2016-04-07T08:51:18.922Z,30
2016-04-07T08:52:18.940Z,35
2016-04-07T08:53:18.803Z,50
2016-04-07T08:54:18.946Z,80
2016-04-07T08:55:20.276Z,45
2016-04-07T08:56:18.967Z,40
2016-04-07T08:57:19.001Z,45
2016-04-07T08:58:18.988Z,55
2016-04-07T08:59:19.006Z,70
2016-04-07T09:00:18.994Z,75
2016-04-07T09:01:18.997Z,90
2016-04-07T09:02:19.000Z,75
2016-04-07T09:03:19.002Z,60
2016-04-07T09:04:19.067Z,60
2016-04-07T09:05:19.022Z,60
2016-04-07T09:06:19.056Z,50
2016-04-07T09:07:21.058Z,40
2016-04-07T09:08:18.921Z,40
2016-04-07T09:09:19.033Z,40
2016-04-07T09:10:19.083Z,45
2016-04-07T09:11:19.101Z,45
2016-04-07T09:12:19.073Z,45
2016-04-07T09:13:19.107Z,45
2016-04-07T09:14:19.094Z,50
2016-04-07T09:15:19.080Z,60
2016-04-07T09:16:19.099Z,60
2016-04-07T09:17:19.118Z,60
2016-04-07T09:18:19.120Z,60
2016-04-07T09:19:19.138Z,60
2016-04-07T09:20:19.125Z,55
2016-04-07T09:21:19.129Z,50
2016-04-07T09:22:19.170Z,45
2016-04-07T09:23:19.225Z,55
2016-04-07T09:24:19.280Z,65
2016-04-07T09:25:19.287Z,75
2016-04-07T09:26:19.358Z,80
2016-04-07T09:27:19.382Z,110
2016-04-07T09:28:19.399Z,120
2016-04-07T09:29:19.429Z,120
2016-04-07T09:30:19.805Z,115
2016-04-07T09:31:19.461Z,100
2016-04-07T09:32:19.471Z,110
2016-04-07T09:33:19.494Z,115
2016-04-07T09:34:19.501Z,105
2016-04-07T09:35:19.492Z,100
2016-04-07T09:36:19.516Z,100
2016-04-07T09:37:19.521Z,95
2016-04-07T09:38:19.541Z,95
2016-04-07T09:39:19.546Z,95
2016-04-07T09:40:19.551Z,95
2016-04-07T09:41:19.555Z,95
2016-04-07T09:42:19.575Z,95
2016-04-07T09:43:19.625Z,95
2016-04-07T09:44:19.660Z,95
2016-04-07T09:45:19.601Z,95
2016-04-07T09:46:19.619Z,100
2016-04-07T09:47:19.622Z,110
2016-04-07T09:48:19.485Z,105
2016-04-07T09:49:19.628Z,105
2016-04-07T09:50:19.647Z,100
2016-04-07T09:51:19.633Z,75
2016-04-07T09:52:19.683Z,70
2016-04-07T09:53:19.670Z,80
2016-04-07T09:54:19.673Z,95
2016-04-07T09:55:19.769Z,110
2016-04-07T09:56:19.694Z,75
2016-04-07T09:57:19.681Z,65
2016-04-07T09:58:19.684Z,55
2016-04-07T09:59:19.702Z,55
2016-04-07T10:00:19.720Z,55
2016-04-07T10:01:19.738Z,60
2016-04-07T10:02:19.740Z,60
2016-04-07T10:03:19.743Z,60
2016-04-07T10:04:19.731Z,55
2016-04-07T10:05:19.734Z,65
2016-04-07T10:06:19.737Z,60
2016-04-07T10:07:19.755Z,65
2016-04-07T10:08:20.272Z,75
2016-04-07T10:09:20.322Z,75
2016-04-07T10:10:19.778Z,80
2016-04-07T10:11:19.781Z,90
2016-04-07T10:12:19.799Z,80
2016-04-07T10:13:19.802Z,85
2016-04-07T10:14:19.805Z,80
2016-04-07T10:15:19.822Z,70
2016-04-07T10:16:19.811Z,60
2016-04-07T10:17:19.813Z,55
2016-04-07T10:18:19.863Z,50
2016-04-07T10:19:19.912Z,40
2016-04-07T10:20:19.868Z,35
2016-04-07T10:21:19.871Z,35
2016-04-07T10:22:19.857Z,30
2016-04-07T10:23:19.877Z,30
2016-04-07T10:24:19.879Z,30
2016-04-07T10:25:19.960Z,35
2016-04-07T10:26:19.916Z,40
2016-04-07T10:27:19.902Z,45
2016-04-07T10:28:19.921Z,45
2016-04-07T10:29:19.907Z,45
2016-04-07T10:30:19.941Z,55
2016-04-07T10:31:19.928Z,50
2016-04-07T10:32:19.931Z,50
2016-04-07T10:33:19.965Z,50
2016-04-07T10:34:19.984Z,45
2016-04-07T10:35:22.424Z,45
2016-04-07T10:36:19.942Z,65
2016-04-07T10:37:19.976Z,55
2016-04-07T10:38:19.978Z,60
2016-04-07T10:39:19.997Z,60
2016-04-07T10:40:20.092Z,55
2016-04-07T10:41:20.002Z,55
2016-04-07T10:42:20.020Z,55
2016-04-07T10:43:20.039Z,85
2016-04-07T10:44:20.058Z,95
2016-04-07T10:45:20.061Z,105
2016-04-07T10:46:20.047Z,105
2016-04-07T10:47:20.034Z,105
2016-04-07T10:48:20.069Z,100
2016-04-07T10:49:20.086Z,100
2016-04-07T10:50:20.089Z,100
2016-04-07T10:51:20.092Z,100
2016-04-07T10:52:20.080Z,100
2016-04-07T10:53:20.082Z,100
2016-04-07T10:54:20.085Z,100
2016-04-07T10:55:20.102Z,90
2016-04-07T10:56:19.980Z,85
2016-04-07T10:57:20.139Z,85
2016-04-07T10:58:19.954Z,85
2016-04-07T10:59:20.129Z,90
2016-04-07T11:00:20.178Z,85
2016-04-07T11:01:20.181Z,80
2016-04-07T11:02:20.152Z,80
2016-04-07T11:03:20.155Z,85
2016-04-07T11:04:20.158Z,80
2016-04-07T11:05:20.176Z,75
2016-04-07T11:06:20.179Z,85
2016-04-07T11:07:20.197Z,60
2016-04-07T11:08:20.200Z,60
2016-04-07T11:09:20.202Z,65
2016-04-07T11:10:20.377Z,70
2016-04-07T11:11:20.223Z,75
2016-04-07T11:12:20.226Z,85
2016-04-07T11:13:20.229Z,75
2016-04-07T11:14:20.232Z,75
2016-04-07T11:15:20.250Z,75
2016-04-07T11:16:20.253Z,85
2016-04-07T11:17:20.255Z,65
2016-04-07T11:18:20.274Z,60
2016-04-07T11:19:20.292Z,55
2016-04-07T11:20:20.280Z,70
2016-04-07T11:21:20.298Z,75
2016-04-07T11:22:20.300Z,80
2016-04-07T11:23:20.303Z,85
2016-04-07T11:24:20.305Z,80
2016-04-07T11:25:20.324Z,85
2016-04-07T11:26:20.326Z,80
2016-04-07T11:27:20.329Z,80
2016-04-07T11:28:20.347Z,75
2016-04-07T11:29:20.350Z,80
2016-04-07T11:30:20.369Z,80
2016-04-07T11:31:20.371Z,75
2016-04-07T11:32:20.390Z,80
2016-04-07T11:33:20.393Z,75
2016-04-07T11:34:20.379Z,75
2016-04-07T11:35:20.382Z,75
2016-04-07T11:36:20.401Z,75
2016-04-07T11:37:20.403Z,75
2016-04-07T11:38:20.421Z,75
2016-04-07T11:39:20.440Z,75
2016-04-07T11:40:20.459Z,75
2016-04-07T11:41:20.445Z,75
2016-04-07T11:42:20.479Z,80
2016-04-07T11:43:20.467Z,80
2016-04-07T11:44:20.453Z,80
2016-04-07T11:45:20.472Z,75
2016-04-07T11:46:20.475Z,70
2016-04-07T11:47:20.492Z,70
2016-04-07T11:48:20.480Z,70
2016-04-07T11:49:20.514Z,75
2016-04-07T11:50:20.485Z,75
2016-04-07T11:51:20.378Z,70
2016-04-07T11:52:20.522Z,80
2016-04-07T11:53:20.524Z,80
2016-04-07T11:54:20.542Z,75
2016-04-07T11:55:20.655Z,85
2016-04-07T11:56:20.548Z,80
2016-04-07T11:57:20.550Z,80
2016-04-07T11:58:20.553Z,75
2016-04-07T11:59:20.572Z,75
2016-04-07T12:00:20.652Z,75
2016-04-07T12:01:20.577Z,70
2016-04-07T12:02:20.596Z,70
2016-04-07T12:03:20.598Z,60
2016-04-07T12:04:20.601Z,65
2016-04-07T12:05:20.604Z,70
2016-04-07T12:06:20.621Z,60
2016-04-07T12:07:20.609Z,60
2016-04-07T12:08:20.627Z,55
2016-04-07T12:09:20.645Z,55
2016-04-07T12:10:20.835Z,60
2016-04-07T12:11:20.650Z,60
2016-04-07T12:12:20.653Z,75
2016-04-07T12:13:20.672Z,75
2016-04-07T12:14:20.675Z,80
2016-04-07T12:15:20.678Z,75
2016-04-07T12:16:20.695Z,80
2016-04-07T12:17:20.683Z,65
2016-04-07T12:18:20.700Z,65
2016-04-07T12:19:20.703Z,70
2016-04-07T12:20:20.722Z,65
2016-04-07T12:21:20.724Z,60
2016-04-07T12:22:20.742Z,60
2016-04-07T12:23:20.729Z,70
2016-04-07T12:24:20.732Z,75
2016-04-07T12:25:20.922Z,70
2016-04-07T12:26:20.769Z,70
2016-04-07T12:27:20.756Z,70
2016-04-07T12:28:20.774Z,70
2016-04-07T12:29:20.777Z,75
2016-04-07T12:30:20.780Z,70
2016-04-07T12:31:21.157Z,75
2016-04-07T12:32:20.785Z,80
2016-04-07T12:33:20.818Z,85
2016-04-07T12:34:20.806Z,85
2016-04-07T12:35:20.668Z,80
2016-04-07T12:36:20.827Z,75
2016-04-07T12:37:20.830Z,70
2016-04-07T12:38:20.832Z,65
2016-04-07T12:39:20.835Z,60
2016-04-07T12:40:20.900Z,65
2016-04-07T12:41:20.872Z,65
2016-04-07T12:42:20.859Z,60
2016-04-07T12:43:20.878Z,65
2016-04-07T12:44:20.881Z,65
2016-04-07T12:45:20.883Z,65
2016-04-07T12:46:20.917Z,65
2016-04-07T12:47:20.903Z,65
2016-04-07T12:48:20.906Z,65
2016-04-07T12:49:20.924Z,65
2016-04-07T12:50:20.942Z,65
2016-04-07T12:51:20.930Z,60
2016-04-07T12:52:20.791Z,60
2016-04-07T12:53:20.951Z,60
2016-04-07T12:54:35.078Z,60
2016-04-07T12:55:20.988Z,60
2016-04-07T12:56:20.978Z,60
2016-04-07T12:57:20.980Z,60
2016-04-07T12:58:20.999Z,55
2016-04-07T12:59:21.001Z,60
2016-04-07T13:00:21.019Z,60
2016-04-07T13:01:21.007Z,65
2016-04-07T13:02:21.010Z,55
2016-04-07T13:03:21.012Z,55
2016-04-07T13:04:21.030Z,55
2016-04-07T13:05:21.033Z,60
2016-04-07T13:06:20.879Z,65
2016-04-07T13:07:21.054Z,65
2016-04-07T13:08:21.057Z,55
2016-04-07T13:09:21.059Z,65
2016-04-07T13:10:21.109Z,65
2016-04-07T13:11:21.081Z,65
2016-04-07T13:12:21.083Z,65
2016-04-07T13:13:21.102Z,60
2016-04-07T13:14:21.104Z,65
2016-04-07T13:15:21.107Z,60
2016-04-07T13:16:21.109Z,50
2016-04-07T13:17:21.112Z,60
2016-04-07T13:18:21.130Z,60
2016-04-07T13:19:21.180Z,60
2016-04-07T13:20:21.136Z,60
2016-04-07T13:21:21.138Z,60
2016-04-07T13:22:21.329Z,60
2016-04-07T13:23:21.159Z,60
2016-04-07T13:24:21.178Z,60
2016-04-07T13:25:21.322Z,60
2016-04-07T13:26:21.214Z,60
2016-04-07T13:27:21.202Z,50
2016-04-07T13:28:21.193Z,45
2016-04-07T13:29:21.212Z,45
2016-04-07T13:30:21.386Z,45
2016-04-07T13:31:21.233Z,45
2016-04-07T13:32:21.221Z,45
2016-04-07T13:33:21.223Z,45
2016-04-07T13:34:21.272Z,45
2016-04-07T13:35:21.259Z,45
2016-04-07T13:36:21.246Z,45
2016-04-07T13:37:21.248Z,45
2016-04-07T13:38:21.267Z,50
2016-04-07T13:39:21.285Z,55
2016-04-07T13:40:21.367Z,50
2016-04-07T13:41:21.291Z,50
2016-04-07T13:42:21.293Z,50
2016-04-07T13:43:21.296Z,45
2016-04-07T13:44:21.299Z,50
2016-04-07T13:45:21.317Z,55
2016-04-07T13:46:21.336Z,60
2016-04-07T13:47:21.322Z,65
2016-04-07T13:48:21.341Z,80
2016-04-07T13:49:21.406Z,75
2016-04-07T13:50:21.394Z,75
2016-04-07T13:51:21.364Z,75
2016-04-07T13:52:21.367Z,70
2016-04-07T13:53:21.386Z,65
2016-04-07T13:54:21.389Z,60
2016-04-07T13:55:21.391Z,60
2016-04-07T13:56:21.394Z,50
2016-04-07T13:57:21.396Z,55
2016-04-07T13:58:21.399Z,55
2016-04-07T13:59:21.418Z,55
2016-04-07T14:00:21.717Z,55
2016-04-07T14:01:21.424Z,50
2016-04-07T14:02:21.457Z,45
2016-04-07T14:03:21.460Z,55
2016-04-07T14:04:21.446Z,45
2016-04-07T14:05:21.465Z,45
2016-04-07T14:06:21.467Z,40
2016-04-07T14:07:21.470Z,40
2016-04-07T14:08:21.473Z,40
2016-04-07T14:09:21.490Z,40
2016-04-07T14:10:21.494Z,35
2016-04-07T14:11:21.496Z,35
2016-04-07T14:12:21.499Z,35
2016-04-07T14:13:21.518Z,35
2016-04-07T14:14:21.504Z,40
2016-04-07T14:15:21.523Z,40
2016-04-07T14:16:21.525Z,40
2016-04-07T14:17:21.559Z,40
2016-04-07T14:18:21.546Z,35
2016-04-07T14:19:21.799Z,35
2016-04-07T14:20:21.567Z,30
2016-04-07T14:21:21.570Z,25
2016-04-07T14:22:21.573Z,30